sim
Sign-in with your pilot id or email,
or register
Callsign
Passwort

Schedule Details

Flight Number: OEO5514
Departure: Nuremberg Airport (EDDN) at 06:50
Arrival: Fuerteventura Airport (GCFV) at 11:40

Weather Information
Getting current METAR information for EDDN 212150Z 09004KT 060V120 CAVOK 14/M02 Q1016
Getting current METAR information for GCFV 212200Z AUTO 34012KT 9999 BKN026 19/14 Q1015

Schedule Frequency

Route Map